Time;durP1;ratioP1;P1;durP2;ratioP2;P2;SDS_P1;SDS_P2;PMS_P1;PMS_P2;Temp;Humidity;BMP_temperature;BMP_pressure;BME280_temperature;BME280_humidity;BME280_pressure;Samples;Min_cycle;Max_cycle;Signal;HPM_P1;HPM_P2
2022/12/29 00:02:13;;;;;;;8.90;8.70;;;7.10;99.90;;;;;;5180251;27;20200;-83
2022/12/29 00:04:40;;;;;;;8.70;8.50;;;7.10;99.90;;;;;;5167487;27;20223;-84
2022/12/29 00:07:09;;;;;;;8.67;8.47;;;7.20;99.90;;;;;;5173990;27;20235;-83
2022/12/29 00:09:38;;;;;;;8.80;8.60;;;7.10;99.90;;;;;;5177697;27;20238;-84
2022/12/29 00:12:06;;;;;;;8.67;8.47;;;7.20;99.90;;;;;;5175481;27;20235;-84
2022/12/29 00:17:19;;;;;;;8.80;8.60;;;7.20;99.90;;;;;;5168350;27;20224;-83
2022/12/29 00:36:24;;;;;;;9.10;8.80;;;7.30;99.90;;;;;;5165525;27;20227;-83
2022/12/29 00:44:27;;;;;;;8.60;8.40;;;7.30;99.90;;;;;;5165431;27;20220;-84
2022/12/29 00:46:55;;;;;;;8.60;8.40;;;7.30;99.90;;;;;;5165470;27;20279;-84
2022/12/29 00:49:31;;;;;;;8.60;8.40;;;7.30;99.90;;;;;;5164945;27;20235;-84
2022/12/29 00:52:02;;;;;;;8.70;8.50;;;7.30;99.90;;;;;;5165150;27;20718;-84
2022/12/29 00:54:31;;;;;;;8.80;8.60;;;7.30;99.90;;;;;;5165048;27;20236;-84
2022/12/29 00:57:01;;;;;;;8.60;8.40;;;7.30;99.90;;;;;;5164705;27;20227;-83
2022/12/29 00:59:29;;;;;;;8.57;8.37;;;7.30;99.90;;;;;;5164887;27;20231;-83
2022/12/29 01:01:57;;;;;;;8.70;8.50;;;7.40;99.90;;;;;;5170725;27;20219;-84
2022/12/29 01:04:26;;;;;;;8.40;8.20;;;7.40;99.90;;;;;;5166968;27;20237;-84
2022/12/29 01:06:55;;;;;;;8.63;8.43;;;7.40;99.90;;;;;;5166348;27;20267;-84
2022/12/29 01:12:11;;;;;;;8.80;8.60;;;7.40;99.90;;;;;;5165000;27;20215;-84
2022/12/29 01:14:39;;;;;;;8.90;8.70;;;7.50;99.90;;;;;;5164793;27;20343;-84
2022/12/29 01:17:07;;;;;;;8.90;8.70;;;7.50;99.90;;;;;;5164593;27;20291;-84
2022/12/29 01:19:35;;;;;;;9.00;8.80;;;7.50;99.90;;;;;;5166860;27;20262;-84
2022/12/29 01:22:04;;;;;;;8.87;8.67;;;7.50;99.90;;;;;;5166734;27;20322;-84
2022/12/29 01:24:32;;;;;;;8.80;8.60;;;7.50;99.90;;;;;;5164694;27;20223;-84
2022/12/29 01:27:00;;;;;;;8.87;8.67;;;7.60;99.90;;;;;;5161779;27;20238;-84
2022/12/29 01:29:29;;;;;;;8.70;8.50;;;7.60;99.90;;;;;;5161227;27;20277;-84
2022/12/29 01:31:56;;;;;;;8.60;8.40;;;7.60;99.90;;;;;;5162104;27;20327;-84
2022/12/29 01:34:24;;;;;;;8.63;8.43;;;7.60;99.90;;;;;;5162061;27;20238;-85
2022/12/29 01:36:52;;;;;;;8.63;8.43;;;7.60;99.90;;;;;;5162447;27;20671;-85
2022/12/29 01:39:20;;;;;;;8.50;8.30;;;7.60;99.90;;;;;;5161572;27;20239;-84
2022/12/29 01:41:47;;;;;;;8.77;8.57;;;7.70;99.90;;;;;;5163522;27;20289;-84
2022/12/29 01:44:52;;;;;;;8.70;8.50;;;7.70;99.90;;;;;;5166022;27;20207;-84
2022/12/29 01:47:30;;;;;;;8.60;8.40;;;7.70;99.90;;;;;;5167494;27;20227;-84
2022/12/29 01:50:04;;;;;;;8.63;8.43;;;7.70;99.90;;;;;;5166977;27;20269;-84
2022/12/29 01:52:37;;;;;;;9.00;8.80;;;7.70;99.90;;;;;;5166157;27;20224;-84
2022/12/29 01:55:07;;;;;;;8.47;8.27;;;7.70;99.90;;;;;;5166662;27;20246;-84
2022/12/29 01:57:39;;;;;;;8.73;8.53;;;7.70;99.90;;;;;;5165990;27;20318;-84
2022/12/29 02:00:13;;;;;;;8.67;8.47;;;7.80;99.90;;;;;;5166022;27;20262;-84
2022/12/29 02:02:44;;;;;;;8.90;8.70;;;7.80;99.90;;;;;;5165985;27;20322;-84
2022/12/29 02:05:20;;;;;;;8.77;8.57;;;7.80;99.90;;;;;;5165015;27;20274;-84
2022/12/29 02:07:54;;;;;;;8.90;8.70;;;7.90;99.90;;;;;;5165103;27;20223;-84
2022/12/29 02:10:26;;;;;;;9.00;8.80;;;7.90;99.90;;;;;;5166298;27;20234;-84
2022/12/29 02:12:55;;;;;;;8.83;8.63;;;7.90;99.90;;;;;;5166115;27;20235;-84
2022/12/29 02:15:39;;;;;;;8.77;8.57;;;7.90;99.90;;;;;;5165319;27;20245;-81
2022/12/29 02:18:26;;;;;;;8.90;8.70;;;7.90;99.90;;;;;;5166787;27;20227;-83
2022/12/29 02:21:40;;;;;;;8.77;8.57;;;8.00;99.90;;;;;;5165666;27;20310;-82
2022/12/29 02:24:38;;;;;;;8.60;8.40;;;7.90;99.90;;;;;;5165994;27;20231;-82
2022/12/29 02:27:33;;;;;;;8.90;8.70;;;8.00;99.90;;;;;;5169717;27;20212;-82
2022/12/29 02:30:43;;;;;;;8.90;8.70;;;8.10;99.90;;;;;;5158306;27;20239;-82
2022/12/29 02:33:24;;;;;;;8.70;8.50;;;8.10;99.90;;;;;;5148413;27;20296;-82
2022/12/29 02:36:02;;;;;;;9.07;8.83;;;7.90;99.90;;;;;;5167094;27;20314;-82
2022/12/29 02:38:47;;;;;;;8.70;8.50;;;7.90;99.90;;;;;;5165787;27;20700;-84
2022/12/29 02:41:30;;;;;;;8.70;8.50;;;7.80;99.90;;;;;;5165431;27;20224;-84
2022/12/29 02:44:06;;;;;;;8.80;8.60;;;7.90;99.90;;;;;;5165826;27;20231;-85
2022/12/29 02:46:39;;;;;;;8.60;8.40;;;7.80;99.90;;;;;;5164759;27;20239;-84
2022/12/29 02:49:17;;;;;;;8.60;8.40;;;7.90;99.90;;;;;;5164902;27;20223;-84
2022/12/29 02:51:54;;;;;;;8.70;8.50;;;7.80;99.90;;;;;;5165165;27;20224;-84
2022/12/29 02:57:11;;;;;;;8.60;8.40;;;7.80;99.90;;;;;;5165997;27;20223;-84
2022/12/29 02:59:40;;;;;;;8.63;8.43;;;7.70;99.90;;;;;;5165889;27;20251;-84
2022/12/29 03:02:27;;;;;;;8.63;8.43;;;7.80;99.90;;;;;;5165531;27;20231;-84
2022/12/29 03:05:43;;;;;;;8.60;8.40;;;7.90;99.90;;;;;;5165062;27;20227;-85
2022/12/29 03:08:20;;;;;;;8.60;8.40;;;7.90;99.90;;;;;;5128471;27;20249;-84
2022/12/29 03:10:56;;;;;;;8.40;8.20;;;8.00;99.90;;;;;;5165570;27;20364;-84
2022/12/29 03:16:25;;;;;;;8.40;8.20;;;8.00;99.90;;;;;;5165686;27;20227;-81
2022/12/29 03:19:02;;;;;;;8.43;8.23;;;8.00;99.90;;;;;;5167420;27;20790;-82
2022/12/29 03:24:28;;;;;;;8.50;8.30;;;8.10;99.90;;;;;;5165977;27;20266;-82
2022/12/29 03:27:00;;;;;;;8.90;8.70;;;8.10;99.90;;;;;;5165187;27;20243;-83
2022/12/29 03:29:32;;;;;;;8.70;8.50;;;8.10;99.90;;;;;;5164483;27;20235;-83
2022/12/29 03:32:01;;;;;;;8.60;8.40;;;8.10;99.90;;;;;;5164083;27;20233;-83
2022/12/29 03:34:30;;;;;;;8.60;8.40;;;8.20;99.90;;;;;;5164483;27;20239;-83
2022/12/29 03:37:06;;;;;;;8.63;8.43;;;8.20;99.90;;;;;;5164513;27;20231;-83
2022/12/29 03:39:36;;;;;;;8.50;8.30;;;8.30;99.90;;;;;;5164346;27;20237;-83
2022/12/29 03:42:13;;;;;;;8.37;8.17;;;8.30;99.90;;;;;;5165238;27;20278;-83
2022/12/29 03:44:44;;;;;;;8.50;8.30;;;8.30;99.90;;;;;;5165349;27;20292;-83
2022/12/29 03:47:13;;;;;;;8.50;8.30;;;8.30;99.90;;;;;;5165149;27;20290;-83
2022/12/29 03:49:41;;;;;;;8.50;8.30;;;8.30;99.90;;;;;;5164477;27;20215;-82
2022/12/29 03:52:11;;;;;;;8.70;8.50;;;8.30;99.90;;;;;;5164765;27;20228;-82
2022/12/29 03:54:38;;;;;;;8.20;8.00;;;8.30;99.90;;;;;;5176555;27;20281;-83
2022/12/29 03:57:06;;;;;;;8.40;8.20;;;8.30;99.90;;;;;;5179717;27;20219;-83
2022/12/29 03:59:33;;;;;;;8.50;8.30;;;8.30;99.90;;;;;;5176035;27;20244;-84
2022/12/29 04:02:01;;;;;;;8.47;8.27;;;8.40;99.90;;;;;;5169092;27;20279;-83
2022/12/29 04:04:29;;;;;;;8.60;8.40;;;8.40;99.90;;;;;;5169534;27;20227;-83
2022/12/29 04:06:56;;;;;;;8.47;8.27;;;8.50;99.90;;;;;;5169108;27;20223;-84
2022/12/29 04:09:26;;;;;;;8.60;8.40;;;8.50;99.90;;;;;;5168282;27;20302;-83
2022/12/29 04:11:53;;;;;;;8.40;8.20;;;8.50;99.90;;;;;;5166337;27;20298;-83
2022/12/29 04:14:21;;;;;;;8.23;8.03;;;8.60;99.90;;;;;;5166720;27;20255;-83
2022/12/29 04:16:48;;;;;;;8.57;8.37;;;8.60;99.90;;;;;;5171084;27;20253;-82
2022/12/29 04:19:16;;;;;;;8.50;8.30;;;8.50;99.90;;;;;;5170296;27;20222;-82
2022/12/29 04:21:44;;;;;;;8.40;8.20;;;8.50;99.90;;;;;;5169471;27;20216;-82
2022/12/29 04:24:12;;;;;;;8.63;8.43;;;8.50;99.90;;;;;;5168383;27;21091;-83
2022/12/29 04:26:42;;;;;;;8.40;8.20;;;8.50;99.90;;;;;;5165283;27;20737;-82
2022/12/29 04:29:12;;;;;;;8.70;8.50;;;8.50;99.90;;;;;;5162891;27;20230;-83
2022/12/29 04:31:40;;;;;;;8.80;8.60;;;8.50;99.90;;;;;;5162916;27;20219;-82
2022/12/29 04:34:08;;;;;;;8.73;8.53;;;8.50;99.90;;;;;;5163730;27;20254;-82
2022/12/29 04:36:35;;;;;;;8.67;8.47;;;8.50;99.90;;;;;;5163857;27;20250;-83
2022/12/29 04:39:05;;;;;;;8.60;8.40;;;8.40;99.90;;;;;;5170097;27;20212;-82
2022/12/29 04:41:32;;;;;;;8.67;8.47;;;8.40;99.90;;;;;;5182709;27;20218;-82
2022/12/29 04:44:04;;;;;;;8.57;8.37;;;8.40;99.90;;;;;;5164714;27;20240;-83
2022/12/29 04:46:31;;;;;;;8.70;8.50;;;8.40;99.90;;;;;;5155623;22;20244;-84
2022/12/29 04:49:08;;;;;;;8.53;8.33;;;8.30;99.90;;;;;;5123207;28;20269;-84
2022/12/29 04:51:42;;;;;;;8.40;8.20;;;8.30;99.90;;;;;;5123585;28;20266;-85
2022/12/29 04:54:10;;;;;;;8.50;8.30;;;8.20;99.90;;;;;;5122984;28;20233;-84
2022/12/29 04:56:40;;;;;;;8.47;8.27;;;8.20;99.90;;;;;;5141491;27;20231;-84
2022/12/29 04:59:38;;;;;;;8.50;8.30;;;8.20;99.90;;;;;;5149411;27;20236;-85
2022/12/29 05:02:08;;;;;;;8.47;8.27;;;8.10;99.90;;;;;;5147428;27;20220;-85
2022/12/29 05:04:36;;;;;;;8.40;8.20;;;8.00;99.90;;;;;;5147247;27;20281;-84
2022/12/29 05:07:06;;;;;;;8.40;8.20;;;7.90;99.90;;;;;;5146915;27;20318;-85
2022/12/29 05:09:34;;;;;;;8.40;8.20;;;7.80;99.90;;;;;;5145273;27;20274;-85
2022/12/29 05:12:05;;;;;;;8.47;8.27;;;7.80;99.90;;;;;;5143532;27;20234;-84
2022/12/29 05:14:35;;;;;;;8.20;8.00;;;7.70;99.90;;;;;;5144753;27;20238;-84
2022/12/29 05:17:04;;;;;;;8.50;8.30;;;7.70;99.90;;;;;;5143272;27;20301;-85
2022/12/29 05:19:32;;;;;;;8.50;8.30;;;7.70;99.90;;;;;;5143655;27;20231;-85
2022/12/29 05:22:02;;;;;;;8.57;8.37;;;7.70;99.90;;;;;;5144037;27;20228;-85
2022/12/29 05:24:30;;;;;;;8.50;8.30;;;7.70;99.90;;;;;;5143657;27;20267;-84
2022/12/29 05:27:00;;;;;;;8.40;8.20;;;7.70;99.90;;;;;;5143600;27;20236;-85
2022/12/29 05:29:29;;;;;;;8.53;8.33;;;7.70;99.90;;;;;;5143808;27;20239;-85
2022/12/29 05:31:59;;;;;;;8.40;8.20;;;7.70;99.90;;;;;;5143520;27;20247;-85
2022/12/29 05:34:31;;;;;;;8.40;8.20;;;7.70;99.90;;;;;;5146754;27;20235;-85
2022/12/29 05:37:02;;;;;;;8.30;8.10;;;7.70;99.90;;;;;;5145798;27;20236;-85
2022/12/29 05:39:32;;;;;;;8.20;8.00;;;7.70;99.90;;;;;;5145281;27;20219;-85
2022/12/29 05:41:59;;;;;;;8.30;8.10;;;7.70;99.90;;;;;;5145295;27;20713;-85
2022/12/29 05:44:27;;;;;;;8.10;7.90;;;7.60;99.90;;;;;;5147710;27;20228;-85
2022/12/29 05:46:57;;;;;;;8.27;8.07;;;7.60;99.90;;;;;;5145077;27;20240;-85
2022/12/29 05:49:26;;;;;;;8.20;8.00;;;7.60;99.90;;;;;;5144396;27;20232;-85
2022/12/29 05:54:42;;;;;;;8.40;8.20;;;7.50;99.90;;;;;;5143939;27;20239;-85
2022/12/29 05:57:12;;;;;;;8.30;8.10;;;7.50;99.90;;;;;;5144129;27;20251;-85
2022/12/29 05:59:41;;;;;;;8.30;8.10;;;7.60;99.90;;;;;;5143650;27;20319;-85
2022/12/29 06:02:11;;;;;;;8.30;8.10;;;7.60;99.90;;;;;;5143220;27;20315;-85
2022/12/29 06:04:40;;;;;;;8.30;8.10;;;7.60;99.90;;;;;;5143309;27;20238;-85
2022/12/29 06:07:19;;;;;;;8.30;8.10;;;7.60;99.90;;;;;;5142836;27;20652;-85
2022/12/29 06:09:49;;;;;;;8.40;8.20;;;7.60;99.90;;;;;;5142882;27;20262;-84
2022/12/29 06:12:17;;;;;;;8.27;8.07;;;7.50;99.90;;;;;;5142734;27;20282;-84
2022/12/29 06:14:48;;;;;;;8.43;8.23;;;7.50;99.90;;;;;;5142806;27;20311;-85
2022/12/29 06:17:17;;;;;;;8.27;8.07;;;7.50;99.90;;;;;;5142376;27;20430;-85
2022/12/29 06:19:46;;;;;;;8.20;8.00;;;7.40;99.90;;;;;;5141584;27;20225;-84
2022/12/29 06:22:18;;;;;;;8.20;8.00;;;7.40;99.90;;;;;;5142086;27;20223;-85
2022/12/29 06:24:46;;;;;;;8.03;7.83;;;7.30;99.90;;;;;;5142410;27;20247;-85
2022/12/29 06:27:24;;;;;;;8.10;7.90;;;7.30;99.90;;;;;;5142000;27;20231;-84
2022/12/29 06:29:55;;;;;;;8.30;8.10;;;7.20;99.90;;;;;;5145348;27;20212;-84
2022/12/29 06:32:22;;;;;;;8.47;8.27;;;7.20;99.90;;;;;;5156798;27;20224;-84
2022/12/29 06:34:52;;;;;;;8.20;8.00;;;7.20;99.90;;;;;;5146716;27;20253;-84
2022/12/29 06:37:23;;;;;;;8.20;8.00;;;7.10;99.90;;;;;;5146234;27;20231;-84
2022/12/29 06:39:51;;;;;;;8.30;8.10;;;7.20;99.90;;;;;;5145986;27;20255;-84
2022/12/29 06:42:22;;;;;;;8.40;8.20;;;7.20;99.90;;;;;;5144519;27;20316;-84
2022/12/29 06:44:49;;;;;;;8.20;8.00;;;7.20;99.90;;;;;;5143975;27;20728;-85
2022/12/29 06:47:20;;;;;;;8.37;8.17;;;7.20;99.90;;;;;;5145191;27;20263;-85
2022/12/29 06:49:49;;;;;;;8.40;8.20;;;7.20;99.90;;;;;;5144502;27;20262;-85
2022/12/29 06:52:17;;;;;;;8.20;8.00;;;7.20;99.90;;;;;;5144284;27;20243;-85
2022/12/29 06:54:59;;;;;;;8.20;8.00;;;7.30;99.90;;;;;;5144376;27;20281;-84
2022/12/29 06:57:28;;;;;;;8.80;8.60;;;7.20;99.90;;;;;;5145499;27;20287;-84
2022/12/29 06:59:56;;;;;;;8.73;8.53;;;7.20;99.90;;;;;;5144794;27;20224;-85
2022/12/29 07:02:25;;;;;;;8.60;8.40;;;7.20;99.90;;;;;;5144737;27;20224;-84
2022/12/29 07:04:54;;;;;;;8.53;8.33;;;7.20;99.90;;;;;;5153962;27;20228;-84
2022/12/29 07:07:25;;;;;;;8.87;8.67;;;7.30;99.90;;;;;;5146274;27;20243;-84
2022/12/29 07:09:55;;;;;;;9.00;8.80;;;7.40;99.90;;;;;;5145128;27;20228;-85
2022/12/29 07:12:23;;;;;;;8.90;8.70;;;7.30;99.90;;;;;;5144388;27;20254;-84
2022/12/29 07:14:51;;;;;;;9.10;8.83;;;7.30;99.90;;;;;;5143921;27;20232;-84
2022/12/29 07:17:20;;;;;;;9.30;9.00;;;7.40;99.90;;;;;;5144143;27;20254;-85
2022/12/29 07:19:50;;;;;;;8.90;8.70;;;7.30;99.90;;;;;;5143695;27;20223;-84
2022/12/29 07:22:19;;;;;;;9.20;8.90;;;7.30;99.90;;;;;;5143891;27;20274;-84
2022/12/29 07:24:50;;;;;;;8.73;8.53;;;7.30;99.90;;;;;;5144035;27;20342;-84
2022/12/29 07:27:21;;;;;;;8.90;8.70;;;7.40;99.90;;;;;;5144328;27;20232;-85
2022/12/29 07:29:49;;;;;;;8.90;8.70;;;7.50;99.90;;;;;;5145456;27;20286;-84
2022/12/29 07:32:18;;;;;;;8.90;8.70;;;7.50;99.90;;;;;;5144168;27;20232;-85
2022/12/29 07:34:48;;;;;;;8.97;8.77;;;7.60;99.90;;;;;;5144406;27;20312;-85
2022/12/29 07:37:17;;;;;;;8.90;8.70;;;7.60;99.90;;;;;;5144988;27;20258;-85
2022/12/29 07:39:47;;;;;;;8.83;8.63;;;7.70;99.90;;;;;;5144704;27;20224;-85
2022/12/29 07:42:18;;;;;;;8.87;8.67;;;7.80;99.90;;;;;;5145429;27;20223;-85
2022/12/29 07:44:49;;;;;;;9.20;8.90;;;7.80;99.90;;;;;;5153690;27;20232;-85
2022/12/29 07:47:16;;;;;;;8.87;8.67;;;7.90;99.90;;;;;;5152736;27;20224;-85
2022/12/29 07:49:53;;;;;;;8.60;8.40;;;7.90;99.90;;;;;;5148333;27;20227;-85
2022/12/29 07:52:24;;;;;;;8.90;8.70;;;7.90;99.90;;;;;;5147357;27;20235;-85
2022/12/29 07:54:53;;;;;;;8.80;8.60;;;8.00;99.90;;;;;;5146096;27;20224;-85
2022/12/29 07:57:25;;;;;;;8.80;8.60;;;8.00;99.90;;;;;;5146412;27;20251;-85
2022/12/29 08:00:03;;;;;;;8.80;8.60;;;8.10;99.90;;;;;;5145823;27;20238;-85
2022/12/29 08:02:31;;;;;;;8.73;8.53;;;8.10;99.90;;;;;;5145453;27;20223;-85
2022/12/29 08:05:01;;;;;;;8.93;8.70;;;8.20;99.90;;;;;;5153721;27;20280;-85
2022/12/29 08:07:29;;;;;;;8.80;8.60;;;8.20;99.90;;;;;;5151263;27;20216;-85
2022/12/29 08:09:58;;;;;;;8.93;8.70;;;8.30;99.90;;;;;;5146809;27;20231;-85
2022/12/29 08:12:27;;;;;;;9.00;8.70;;;8.30;99.90;;;;;;5144812;27;20365;-85
2022/12/29 08:15:07;;;;;;;9.00;8.70;;;8.40;99.90;;;;;;5144574;27;20239;-85
2022/12/29 08:17:35;;;;;;;9.30;9.00;;;8.40;99.90;;;;;;5145897;27;20278;-85
2022/12/29 08:20:04;;;;;;;9.27;8.97;;;8.50;99.90;;;;;;5144958;27;20229;-85
2022/12/29 08:22:34;;;;;;;9.30;9.00;;;8.50;99.90;;;;;;5145849;27;20234;-85
2022/12/29 08:25:03;;;;;;;9.07;8.77;;;8.60;99.90;;;;;;5145349;27;20274;-84
2022/12/29 08:27:33;;;;;;;9.30;9.00;;;8.60;99.90;;;;;;5145464;27;20352;-85
2022/12/29 08:30:11;;;;;;;9.10;8.80;;;8.60;99.90;;;;;;5150920;27;20260;-84
2022/12/29 08:32:41;;;;;;;9.03;8.80;;;8.60;99.90;;;;;;5150736;27;20224;-85
2022/12/29 08:35:10;;;;;;;9.30;9.00;;;8.70;99.90;;;;;;5146572;27;20331;-84
2022/12/29 08:37:39;;;;;;;9.30;9.00;;;8.80;99.90;;;;;;5145949;27;20242;-84
2022/12/29 08:40:10;;;;;;;9.40;9.10;;;8.80;99.90;;;;;;5145813;27;20285;-84
2022/12/29 08:42:39;;;;;;;9.30;9.00;;;8.90;99.90;;;;;;5149535;27;20283;-85
2022/12/29 08:45:17;;;;;;;9.27;8.97;;;8.90;99.90;;;;;;5145113;27;20242;-84
2022/12/29 08:47:47;;;;;;;9.20;8.90;;;8.90;99.90;;;;;;5144933;27;20224;-84
2022/12/29 08:50:16;;;;;;;9.30;9.00;;;9.00;99.90;;;;;;5143765;27;20264;-85
2022/12/29 08:52:46;;;;;;;9.30;9.00;;;9.10;99.90;;;;;;5143895;27;20217;-85
2022/12/29 08:55:15;;;;;;;9.20;8.90;;;9.10;99.90;;;;;;5144260;27;20239;-85
2022/12/29 08:57:45;;;;;;;9.30;9.00;;;9.20;99.90;;;;;;5145195;27;20255;-84
2022/12/29 09:00:25;;;;;;;8.90;8.70;;;9.20;99.90;;;;;;5145067;27;20312;-84
2022/12/29 09:02:52;;;;;;;8.90;8.70;;;9.20;99.90;;;;;;5144689;27;20255;-84
2022/12/29 09:05:21;;;;;;;9.20;8.90;;;9.30;99.90;;;;;;5145010;27;20232;-85
2022/12/29 09:07:50;;;;;;;9.13;8.83;;;9.30;99.90;;;;;;5144688;27;20227;-85
2022/12/29 09:10:20;;;;;;;8.70;8.50;;;9.40;99.90;;;;;;5144445;27;20307;-85
2022/12/29 09:12:49;;;;;;;9.10;8.80;;;9.40;99.90;;;;;;5143638;27;20260;-85
2022/12/29 09:15:30;;;;;;;9.10;8.80;;;9.50;99.90;;;;;;5144285;27;20235;-85
2022/12/29 09:17:58;;;;;;;9.20;8.90;;;9.60;99.90;;;;;;5144737;27;20246;-86
2022/12/29 09:20:27;;;;;;;9.43;9.13;;;9.70;99.90;;;;;;5145221;27;20254;-85
2022/12/29 09:22:56;;;;;;;9.60;9.30;;;9.90;99.90;;;;;;5144136;27;20272;-85
2022/12/29 09:25:25;;;;;;;9.67;9.37;;;10.00;99.90;;;;;;5144943;27;20239;-85
2022/12/29 09:27:55;;;;;;;9.40;9.10;;;10.20;99.90;;;;;;5145053;27;20295;-84
2022/12/29 09:30:35;;;;;;;9.60;9.30;;;10.40;99.90;;;;;;5145567;27;20239;-84
2022/12/29 09:33:03;;;;;;;9.47;9.17;;;10.40;99.90;;;;;;5146767;27;20232;-85
2022/12/29 09:35:32;;;;;;;9.50;9.20;;;10.50;99.90;;;;;;5149492;27;20231;-85
2022/12/29 09:38:03;;;;;;;9.40;9.10;;;10.60;99.90;;;;;;5147633;27;20234;-84
2022/12/29 09:40:33;;;;;;;9.80;9.50;;;10.60;99.90;;;;;;5146258;27;20236;-85
2022/12/29 09:43:28;;;;;;;9.60;9.30;;;10.60;99.90;;;;;;5145467;27;20225;-85
2022/12/29 09:46:16;;;;;;;9.90;9.60;;;10.70;99.90;;;;;;5145489;27;20231;-84
2022/12/29 09:48:54;;;;;;;10.00;9.70;;;10.70;99.90;;;;;;5145941;27;20255;-85
2022/12/29 09:51:33;;;;;;;9.80;9.50;;;10.70;99.90;;;;;;5146072;27;20232;-85
2022/12/29 09:54:11;;;;;;;9.90;9.60;;;10.70;99.90;;;;;;5157974;27;20211;-85
2022/12/29 09:56:42;;;;;;;9.80;9.50;;;10.70;99.90;;;;;;5152180;27;20236;-85
2022/12/29 09:59:18;;;;;;;9.80;9.50;;;10.70;99.90;;;;;;5148289;27;20236;-85
2022/12/29 10:01:57;;;;;;;9.80;9.50;;;10.70;99.90;;;;;;5146425;27;20219;-85
2022/12/29 10:04:28;;;;;;;9.63;9.33;;;10.70;99.90;;;;;;5150670;27;20234;-85
2022/12/29 10:07:04;;;;;;;9.83;9.53;;;10.70;99.90;;;;;;5149674;27;20296;-85
2022/12/29 10:09:44;;;;;;;9.63;9.33;;;10.80;99.90;;;;;;5150123;27;20368;-85
2022/12/29 10:12:30;;;;;;;9.90;9.60;;;10.80;99.90;;;;;;5149556;27;20275;-85
2022/12/29 10:15:07;;;;;;;9.70;9.40;;;11.00;99.90;;;;;;5148420;27;20244;-85
2022/12/29 10:17:55;;;;;;;9.57;9.27;;;11.00;99.90;;;;;;5149618;27;20239;-85
2022/12/29 10:20:33;;;;;;;9.80;9.50;;;11.10;99.90;;;;;;5149425;27;20232;-86
2022/12/29 10:23:21;;;;;;;9.70;9.40;;;11.10;99.90;;;;;;5149102;27;20234;-85
2022/12/29 10:25:58;;;;;;;9.93;9.63;;;11.10;99.90;;;;;;5154842;27;20228;-85
2022/12/29 10:28:37;;;;;;;9.70;9.40;;;11.10;99.90;;;;;;5149211;27;20224;-85
2022/12/29 10:31:16;;;;;;;9.77;9.47;;;11.10;99.90;;;;;;5147974;27;20228;-85
2022/12/29 10:33:52;;;;;;;9.60;9.30;;;11.20;99.90;;;;;;5149030;27;20231;-86
2022/12/29 10:36:31;;;;;;;9.47;9.17;;;11.20;99.90;;;;;;5148941;27;20228;-85
2022/12/29 10:39:09;;;;;;;9.70;9.40;;;11.30;99.90;;;;;;5148275;27;20332;-86
2022/12/29 10:41:48;;;;;;;10.10;9.80;;;11.30;99.90;;;;;;5147128;27;20250;-86
2022/12/29 10:44:19;;;;;;;9.60;9.30;;;11.40;99.90;;;;;;5151350;27;20224;-85
2022/12/29 10:47:06;;;;;;;9.60;9.30;;;11.40;99.90;;;;;;5179700;22;20246;-87
2022/12/29 10:49:45;;;;;;;9.30;9.00;;;11.40;99.90;;;;;;5163717;27;20283;-89
2022/12/29 10:52:13;;;;;;;9.43;9.13;;;11.50;99.90;;;;;;5163973;27;20222;-88
2022/12/29 10:54:50;;;;;;;9.40;9.10;;;11.50;99.90;;;;;;5164074;27;20209;-88
2022/12/29 10:57:29;;;;;;;9.50;9.20;;;11.60;99.90;;;;;;5182488;27;20219;-87
2022/12/29 11:00:00;;;;;;;9.67;9.37;;;11.70;99.90;;;;;;5184410;27;20254;-87
2022/12/29 11:03:38;;;;;;;9.37;9.07;;;11.70;99.90;;;;;;5176305;27;20230;-89
2022/12/29 11:06:50;;;;;;;9.80;9.50;;;11.80;99.90;;;;;;5168789;27;20230;-88
2022/12/29 11:09:30;;;;;;;9.60;9.30;;;11.80;99.90;;;;;;5169464;27;20223;-88
2022/12/29 11:11:58;;;;;;;9.23;8.93;;;11.80;99.90;;;;;;5170549;27;20295;-89
2022/12/29 11:14:40;;;;;;;9.50;9.20;;;11.80;99.90;;;;;;5167399;27;20245;-89
2022/12/29 11:17:16;;;;;;;9.20;8.90;;;11.80;99.90;;;;;;5170853;27;20226;-89
2022/12/29 11:19:54;;;;;;;9.13;8.83;;;11.90;99.90;;;;;;5174691;27;20275;-89
2022/12/29 11:22:35;;;;;;;9.17;8.87;;;11.90;99.90;;;;;;5171561;27;20234;-89
2022/12/29 11:25:18;;;;;;;9.30;9.00;;;11.90;99.90;;;;;;5169616;27;20227;-88
2022/12/29 11:28:01;;;;;;;9.20;8.90;;;11.90;99.90;;;;;;5166152;27;20235;-89
2022/12/29 11:30:36;;;;;;;9.47;9.17;;;11.90;99.90;;;;;;5164876;27;20310;-89
2022/12/29 11:33:08;;;;;;;9.43;9.13;;;11.90;99.90;;;;;;5163784;27;20240;-89
2022/12/29 11:35:43;;;;;;;9.10;8.80;;;11.90;99.90;;;;;;5163757;27;20235;-89
2022/12/29 11:41:27;;;;;;;9.37;9.07;;;11.90;99.90;;;;;;5158977;27;20223;-89
2022/12/29 11:44:08;;;;;;;9.43;9.13;;;11.90;99.90;;;;;;5163168;27;20711;-89
2022/12/29 11:46:53;;;;;;;9.27;8.97;;;11.90;99.90;;;;;;5162625;27;20241;-89
2022/12/29 11:49:31;;;;;;;9.33;9.03;;;12.00;99.90;;;;;;5162259;27;20223;-89
2022/12/29 11:51:59;;;;;;;9.20;8.90;;;12.10;99.90;;;;;;5161972;27;20239;-88
2022/12/29 11:55:07;;;;;;;9.00;8.80;;;12.20;99.90;;;;;;5162729;27;20759;-89
2022/12/29 11:57:56;;;;;;;8.77;8.57;;;12.20;99.90;;;;;;5161659;27;20237;-89
2022/12/29 12:00:31;;;;;;;9.20;8.90;;;12.20;99.90;;;;;;5165363;27;20232;-89
2022/12/29 12:06:24;;;;;;;8.93;8.73;;;12.20;99.90;;;;;;5164382;27;20239;-89
2022/12/29 12:08:59;;;;;;;9.00;8.80;;;12.20;99.90;;;;;;5183461;27;20222;-88
2022/12/29 12:12:07;;;;;;;9.37;9.07;;;12.30;99.90;;;;;;5175146;27;20222;-88
2022/12/29 12:14:52;;;;;;;9.27;8.97;;;12.50;99.90;;;;;;5162650;27;20277;-89
2022/12/29 12:17:37;;;;;;;9.40;9.10;;;12.70;99.90;;;;;;5161891;27;20230;-88
2022/12/29 12:20:21;;;;;;;9.20;8.90;;;12.80;99.90;;;;;;5173587;27;20238;-89
2022/12/29 12:23:12;;;;;;;9.53;9.23;;;12.80;99.90;;;;;;5163565;27;20227;-89
2022/12/29 12:26:00;;;;;;;9.30;9.00;;;12.90;99.90;;;;;;5162993;27;20223;-88
2022/12/29 12:28:48;;;;;;;9.30;9.00;;;12.90;99.90;;;;;;5163219;27;20235;-88
2022/12/29 12:34:22;;;;;;;9.40;9.10;;;12.90;99.90;;;;;;5180555;27;20231;-87
2022/12/29 12:37:17;;;;;;;9.30;9.00;;;12.90;99.90;;;;;;5182475;27;20191;-87
2022/12/29 12:40:12;;;;;;;9.40;9.10;;;12.90;99.90;;;;;;5182671;27;20208;-87
2022/12/29 12:42:50;;;;;;;9.20;8.90;;;12.80;99.90;;;;;;5167902;27;20224;-87
2022/12/29 12:45:47;;;;;;;8.90;8.70;;;12.80;99.90;;;;;;5160571;27;20253;-87
2022/12/29 12:51:37;;;;;;;8.90;8.70;;;12.70;99.90;;;;;;5165922;27;20219;-87
2022/12/29 12:57:23;;;;;;;9.00;8.80;;;12.50;99.90;;;;;;5163334;27;20223;-88
2022/12/29 13:00:00;;;;;;;9.13;8.83;;;12.50;99.90;;;;;;5161897;27;20219;-88
2022/12/29 13:02:54;;;;;;;9.30;9.00;;;12.40;99.90;;;;;;5160514;27;20223;-87
2022/12/29 13:05:59;;;;;;;9.33;9.03;;;12.40;99.90;;;;;;5161043;27;20230;-88
2022/12/29 13:09:26;;;;;;;9.20;8.90;;;12.40;99.90;;;;;;5161268;27;20235;-88
2022/12/29 13:12:18;;;;;;;9.40;9.10;;;12.40;99.90;;;;;;5135816;27;20292;-88
2022/12/29 13:15:07;;;;;;;9.20;8.90;;;12.30;99.90;;;;;;5161468;27;20235;-88
2022/12/29 13:17:45;;;;;;;9.30;9.00;;;12.30;99.90;;;;;;5161344;27;20319;-87
2022/12/29 13:20:30;;;;;;;9.50;9.20;;;12.20;99.90;;;;;;5161107;27;20231;-88
2022/12/29 13:23:09;;;;;;;9.33;9.03;;;12.10;99.90;;;;;;5160735;27;20230;-88
2022/12/29 13:25:56;;;;;;;9.50;9.20;;;12.10;99.90;;;;;;5160328;27;20239;-88
2022/12/29 13:28:36;;;;;;;8.87;8.67;;;12.00;99.90;;;;;;5161189;27;20219;-88
2022/12/29 13:31:15;;;;;;;9.00;8.70;;;12.00;99.90;;;;;;5160595;27;20270;-88
2022/12/29 13:33:58;;;;;;;8.80;8.60;;;11.90;99.90;;;;;;5162440;27;20230;-88
2022/12/29 13:36:37;;;;;;;9.00;8.77;;;11.80;99.90;;;;;;5181046;27;20231;-88
2022/12/29 13:39:18;;;;;;;8.70;8.50;;;11.70;99.90;;;;;;5184543;27;20262;-87
2022/12/29 13:41:55;;;;;;;8.80;8.60;;;11.80;99.90;;;;;;5178271;27;20231;-88
2022/12/29 13:44:32;;;;;;;8.50;8.30;;;11.80;99.90;;;;;;5167462;27;20231;-87
2022/12/29 13:47:12;;;;;;;8.40;8.20;;;11.90;99.90;;;;;;5163968;27;20292;-88
2022/12/29 13:52:38;;;;;;;8.60;8.40;;;12.00;99.90;;;;;;5162791;27;20253;-88
2022/12/29 13:55:31;;;;;;;8.87;8.67;;;12.00;99.90;;;;;;5163537;27;20218;-89
2022/12/29 13:58:11;;;;;;;8.53;8.33;;;12.00;99.90;;;;;;5163842;27;20340;-88
2022/12/29 14:00:50;;;;;;;8.73;8.53;;;11.90;99.90;;;;;;5165918;27;20228;-88
2022/12/29 14:03:54;;;;;;;8.70;8.50;;;12.00;99.90;;;;;;5167050;27;20227;-89
2022/12/29 14:06:34;;;;;;;8.50;8.30;;;11.90;99.90;;;;;;5164219;27;20234;-88
2022/12/29 14:09:12;;;;;;;9.03;8.73;;;11.90;99.90;;;;;;5175289;27;20207;-87
2022/12/29 14:11:41;;;;;;;8.63;8.43;;;11.90;99.90;;;;;;5185145;27;20223;-88
2022/12/29 14:14:20;;;;;;;8.60;8.40;;;11.80;99.90;;;;;;5184110;27;20219;-88
2022/12/29 14:16:48;;;;;;;8.77;8.57;;;11.80;99.90;;;;;;5181225;27;20280;-88
2022/12/29 14:19:30;;;;;;;8.53;8.33;;;11.80;99.90;;;;;;5177163;27;20228;-88
2022/12/29 14:22:05;;;;;;;8.80;8.60;;;11.70;99.90;;;;;;5164691;27;20252;-88
2022/12/29 14:24:53;;;;;;;8.53;8.33;;;11.70;99.90;;;;;;5164077;27;20239;-88
2022/12/29 14:30:51;;;;;;;8.60;8.40;;;11.60;99.90;;;;;;5128685;27;20283;-88
2022/12/29 14:33:23;;;;;;;8.70;8.50;;;11.60;99.90;;;;;;5164028;27;20230;-88
2022/12/29 14:35:52;;;;;;;8.70;8.50;;;11.50;99.90;;;;;;5163526;27;20258;-88